Ayer, MA

4:14 PM EST on February 10, 2016 (GMT -0500)
Ayer Center | | Change Station
CLOSE
Current Station
Personal Weather Station
Location: Ayer, MA
Elevation: 230 ft
Nearby Weather Stations
Active Advisory: Special Statement Active Notice: Public Information Statement

Elev 230 ft 42.56 °N, 71.59 °W | Updated 5 seconds ago

Overcast
Overcast
35.2 °F
Feels Like 35 °F
N
0.0
Wind Variable Wind from SW
Gusts 0.0 mph

Today
High -- | Low -- °F
--% Chance of Precip.
Yesterday
High -- | Low -- °F
Precip. -- in
Pressure 29.56 in
Visibility 10.0 miles
Clouds Few 2500 ft
Mostly Cloudy 3300 ft
Mostly Cloudy 4400 ft
Windchill 35 °F
Dew Point 25 °F
Humidity 67%
Rainfall 0.00 in
Snow Depth Not available.
6:50 AM 5:11 PM
Waxing Crescent, 7% visible
METAR KFIT 102052Z AUTO 30007KT 10SM FEW025 BKN033 BKN044 03/M04 A2954 RMK AO2 SLP010 60000 T00281039 53004
Pressure 29.56 in
Visibility 10.0 miles
Clouds Few 2500 ft
Mostly Cloudy 3300 ft
Mostly Cloudy 4400 ft
Windchill 35 °F
Dew Point 25 °F
Humidity 67%
Rainfall 0.00 in
Snow Depth Not available.
6:50 AM 5:11 PM
Waxing Crescent, 7% visible
METAR KFIT 102052Z AUTO 30007KT 10SM FEW025 BKN033 BKN044 03/M04 A2954 RMK AO2 SLP010 60000 T00281039 53004

10-Day Weather Forecast

Almanac

Astronomy

Feb. 10, 2016 Rise Set
Actual Time
Civil Twilight
Nautical Twilight
Astronomical Twilight
Moon
Length of Visible Light
Length of Day
Tomorrow will be .
, % of the Moon is Illuminated

Today's Extremes

State Highs State Lows

Community

WunderPhotos

Upload Photos

1,891,949 photos uploaded!

WunderBlog® & News

Nearby

Air Quality

  Air Quality AQ Index Pollutant
Not available.

Snow Depth

Station Depth Elevation

Earthquake Activity

City Distance Mag. Time & Date
Minimum magnitude displayed is 2.5.

Coastal Water Temperatures

Place Temperature

Stations

Nearby Weather Stations

Station Location Temp. Windchill Dew Point Humidity Wind Precip. Elev Updated Type
                   

Watches & Warnings

Special Statement
Issued: 10:34 AM EST Feb. 10, 2016 – National Weather Service

... Scattered but locally heavy snow showers possible this
afternoon...

An area of snow produced minor accumulations in western New
England earlier this morning. Light snow is lifting across
Massachusetts... but another round of scattered snow showers is
expected this afternoon across southern New England.

While much of the activity will be light... localized heavier snow
showers and squalls may result in a quick inch or two of snowfall
in a short time. Any heavier squalls will be isolated but where
they occur will result in roads quickly becoming snow covered and
briefly poor visibility.

Motorists traveling today should be prepared for snow covered
roads and briefly poor visibility.